createdAt,value
2018-01-15T00:00:10.240Z,3.53
2018-01-15T00:01:11.647Z,3.65
2018-01-15T00:02:13.055Z,3.61
2018-01-15T00:03:14.468Z,3.64
2018-01-15T00:04:15.891Z,3.52
2018-01-15T00:05:17.295Z,3.61
2018-01-15T00:06:18.711Z,3.64
2018-01-15T00:07:20.127Z,3.68
2018-01-15T00:08:21.538Z,3.60
2018-01-15T00:09:22.960Z,3.62
2018-01-15T00:10:24.459Z,3.68
2018-01-15T00:11:25.866Z,3.67
2018-01-15T00:12:27.272Z,3.57
2018-01-15T00:13:28.694Z,3.47
2018-01-15T00:14:30.109Z,3.53
2018-01-15T00:15:31.539Z,3.54
2018-01-15T00:16:32.952Z,3.52
2018-01-15T00:17:34.353Z,3.53
2018-01-15T00:18:35.776Z,3.54
2018-01-15T00:19:37.195Z,3.58
2018-01-15T00:20:38.607Z,3.62
2018-01-15T00:21:40.032Z,3.53
2018-01-15T00:22:41.438Z,3.54
2018-01-15T00:23:42.861Z,3.60
2018-01-15T00:24:44.269Z,3.62
2018-01-15T00:25:45.686Z,3.57
2018-01-15T00:26:47.100Z,3.65
2018-01-15T00:27:48.513Z,3.60
2018-01-15T00:28:49.927Z,3.67
2018-01-15T00:29:51.337Z,3.75
2018-01-15T00:30:52.748Z,3.75
2018-01-15T00:31:54.155Z,3.61
2018-01-15T00:32:55.579Z,3.64
2018-01-15T00:33:56.988Z,3.53
2018-01-15T00:34:58.395Z,3.70
2018-01-15T00:35:59.814Z,3.70
2018-01-15T00:37:01.224Z,3.78
2018-01-15T00:38:02.630Z,3.82
2018-01-15T00:39:04.045Z,3.85
2018-01-15T00:40:05.461Z,3.96
2018-01-15T00:41:06.870Z,4.01
2018-01-15T00:42:08.279Z,4.03
2018-01-15T00:43:09.691Z,3.97
2018-01-15T00:44:11.104Z,3.96
2018-01-15T00:45:12.516Z,3.92
2018-01-15T00:46:13.914Z,3.89
2018-01-15T00:47:15.321Z,3.86
2018-01-15T00:48:16.732Z,4.00
2018-01-15T00:49:18.147Z,3.98
2018-01-15T00:50:19.558Z,4.01
2018-01-15T00:51:20.967Z,4.04
2018-01-15T00:52:22.377Z,4.06
2018-01-15T00:53:23.797Z,3.90
2018-01-15T00:54:25.215Z,3.92
2018-01-15T00:55:26.616Z,3.92
2018-01-15T00:56:28.028Z,3.92
2018-01-15T00:57:29.438Z,4.08
2018-01-15T00:58:30.859Z,4.07
2018-01-15T00:59:32.266Z,3.92
2018-01-15T01:00:33.686Z,3.89
2018-01-15T01:01:35.097Z,3.89
2018-01-15T01:02:36.514Z,3.90
2018-01-15T01:03:37.930Z,3.82
2018-01-15T01:04:39.337Z,3.78
2018-01-15T01:05:40.746Z,3.83
2018-01-15T01:06:42.157Z,3.86
2018-01-15T01:07:43.569Z,3.94
2018-01-15T01:08:44.976Z,3.85
2018-01-15T01:09:47.386Z,3.78
2018-01-15T01:10:48.795Z,3.82
2018-01-15T01:11:50.199Z,3.78
2018-01-15T01:12:51.606Z,3.80
2018-01-15T01:13:53.027Z,3.86
2018-01-15T01:14:54.437Z,3.86
2018-01-15T01:15:55.903Z,3.85
2018-01-15T01:16:57.306Z,3.85
2018-01-15T01:17:58.718Z,3.83
2018-01-15T01:19:00.143Z,3.85
2018-01-15T01:20:01.564Z,3.92
2018-01-15T01:21:02.983Z,3.96
2018-01-15T01:22:04.386Z,4.04
2018-01-15T01:23:05.817Z,3.96
2018-01-15T01:24:07.224Z,4.03
2018-01-15T01:25:08.631Z,4.06
2018-01-15T01:26:10.052Z,4.04
2018-01-15T01:27:11.461Z,3.94
2018-01-15T01:28:12.877Z,4.03
2018-01-15T01:29:14.292Z,4.03
2018-01-15T01:30:15.752Z,4.06
2018-01-15T01:31:17.164Z,4.08
2018-01-15T01:32:19.179Z,4.03
2018-01-15T01:33:20.579Z,3.90
2018-01-15T01:34:21.992Z,3.96
2018-01-15T01:35:23.405Z,3.92
2018-01-15T01:36:24.817Z,3.97
2018-01-15T01:37:26.215Z,4.03
2018-01-15T01:38:27.640Z,3.96
2018-01-15T01:39:29.054Z,3.97
2018-01-15T01:40:30.469Z,4.00
2018-01-15T01:41:31.878Z,3.94
2018-01-15T01:42:33.290Z,3.83
2018-01-15T01:43:34.699Z,3.72
2018-01-15T01:44:36.100Z,3.76
2018-01-15T01:45:37.508Z,3.78
2018-01-15T01:46:38.924Z,3.78
2018-01-15T01:47:40.345Z,3.79
2018-01-15T01:48:41.756Z,3.78
2018-01-15T01:49:43.179Z,3.67
2018-01-15T01:50:44.586Z,3.70
2018-01-15T01:51:46.005Z,3.72
2018-01-15T01:52:47.420Z,3.71
2018-01-15T01:53:48.826Z,3.79
2018-01-15T01:54:50.268Z,3.72
2018-01-15T01:55:51.677Z,3.70
2018-01-15T01:56:53.101Z,3.68
2018-01-15T01:57:54.510Z,3.78
2018-01-15T01:58:55.915Z,3.64
2018-01-15T01:59:57.318Z,3.71
2018-01-15T02:00:58.722Z,3.61
2018-01-15T02:02:00.143Z,3.70
2018-01-15T02:03:01.551Z,3.78
2018-01-15T02:04:02.960Z,3.58
2018-01-15T02:05:04.369Z,3.64
2018-01-15T02:06:05.781Z,3.78
2018-01-15T02:07:07.190Z,3.75
2018-01-15T02:08:08.600Z,3.70
2018-01-15T02:09:10.017Z,3.61
2018-01-15T02:10:11.432Z,3.53
2018-01-15T02:11:12.834Z,3.61
2018-01-15T02:12:14.243Z,3.54
2018-01-15T02:13:15.661Z,3.61
2018-01-15T02:14:17.083Z,3.60
2018-01-15T02:15:18.494Z,3.49
2018-01-15T02:16:19.906Z,3.60
2018-01-15T02:17:21.319Z,3.62
2018-01-15T02:18:22.733Z,3.71
2018-01-15T02:19:24.159Z,3.72
2018-01-15T02:20:25.578Z,3.72
2018-01-15T02:21:26.991Z,3.71
2018-01-15T02:22:28.418Z,3.76
2018-01-15T02:23:29.829Z,3.49
2018-01-15T02:24:31.243Z,3.62
2018-01-15T02:25:32.657Z,3.57
2018-01-15T02:26:34.080Z,3.53
2018-01-15T02:27:35.491Z,3.61
2018-01-15T02:28:36.903Z,3.60
2018-01-15T02:29:38.310Z,3.64
2018-01-15T02:30:39.730Z,3.72
2018-01-15T02:31:41.134Z,3.65
2018-01-15T02:32:42.543Z,3.54
2018-01-15T02:33:44.017Z,3.54
2018-01-15T02:34:45.429Z,3.57
2018-01-15T02:35:46.839Z,3.64
2018-01-15T02:36:48.248Z,3.78
2018-01-15T02:37:49.664Z,3.70
2018-01-15T02:38:51.070Z,3.70
2018-01-15T02:39:52.479Z,3.72
2018-01-15T02:40:53.893Z,3.68
2018-01-15T02:41:55.289Z,3.76
2018-01-15T02:42:56.718Z,3.75
2018-01-15T02:43:58.128Z,3.71
2018-01-15T02:44:59.531Z,3.65
2018-01-15T02:46:00.936Z,3.68
2018-01-15T02:47:03.172Z,3.72
2018-01-15T02:48:04.575Z,3.71
2018-01-15T02:49:05.987Z,3.71
2018-01-15T02:50:07.397Z,3.76
2018-01-15T02:51:08.810Z,3.80
2018-01-15T02:52:10.226Z,3.78
2018-01-15T02:53:11.628Z,3.85
2018-01-15T02:54:13.034Z,3.76
2018-01-15T02:55:14.447Z,3.76
2018-01-15T02:56:15.862Z,3.79
2018-01-15T02:57:17.271Z,3.79
2018-01-15T02:58:18.678Z,3.78
2018-01-15T02:59:20.086Z,3.86
2018-01-15T03:00:21.563Z,3.90
2018-01-15T03:01:22.977Z,3.80
2018-01-15T03:02:24.393Z,4.04
2018-01-15T03:03:25.791Z,3.98
2018-01-15T03:04:27.208Z,3.97
2018-01-15T03:05:28.619Z,4.01
2018-01-15T03:06:30.024Z,3.90
2018-01-15T03:07:31.444Z,3.89
2018-01-15T03:08:32.860Z,3.83
2018-01-15T03:09:34.280Z,3.80
2018-01-15T03:10:35.690Z,3.86
2018-01-15T03:11:37.098Z,3.78
2018-01-15T03:12:38.512Z,3.71
2018-01-15T03:13:39.913Z,3.78
2018-01-15T03:14:41.326Z,3.85
2018-01-15T03:15:42.732Z,3.79
2018-01-15T03:16:44.140Z,3.80
2018-01-15T03:17:45.551Z,3.85
2018-01-15T03:18:46.956Z,3.86
2018-01-15T03:19:48.382Z,3.89
2018-01-15T03:20:49.801Z,3.98
2018-01-15T03:21:51.216Z,4.07
2018-01-15T03:22:52.634Z,4.03
2018-01-15T03:23:54.046Z,4.04
2018-01-15T03:24:55.455Z,4.08
2018-01-15T03:25:56.881Z,4.08
2018-01-15T03:26:58.297Z,4.04
2018-01-15T03:27:59.708Z,4.04
2018-01-15T03:29:01.123Z,4.12
2018-01-15T03:30:02.532Z,4.19
2018-01-15T03:31:03.942Z,4.12
2018-01-15T03:32:05.347Z,4.25
2018-01-15T03:33:06.759Z,4.24
2018-01-15T03:34:08.163Z,4.33
2018-01-15T03:35:09.579Z,4.26
2018-01-15T03:36:10.996Z,4.26
2018-01-15T03:37:12.403Z,4.36
2018-01-15T03:38:13.807Z,4.29
2018-01-15T03:39:15.216Z,4.29
2018-01-15T03:40:16.627Z,4.36
2018-01-15T03:41:18.040Z,4.36
2018-01-15T03:42:19.450Z,4.40
2018-01-15T03:43:20.856Z,4.44
2018-01-15T03:44:22.272Z,4.39
2018-01-15T03:45:23.697Z,4.40
2018-01-15T03:46:25.108Z,4.50
2018-01-15T03:47:26.519Z,4.47
2018-01-15T03:48:27.933Z,4.40
2018-01-15T03:49:29.349Z,4.40
2018-01-15T03:50:30.758Z,4.40
2018-01-15T03:51:32.170Z,4.43
2018-01-15T03:52:33.579Z,4.42
2018-01-15T03:53:34.990Z,4.44
2018-01-15T03:54:36.402Z,4.46
2018-01-15T03:55:37.809Z,4.44
2018-01-15T03:56:39.218Z,4.50
2018-01-15T03:57:40.633Z,4.47
2018-01-15T03:58:42.046Z,4.44
2018-01-15T03:59:43.455Z,4.58
2018-01-15T04:00:44.861Z,4.46
2018-01-15T04:01:46.266Z,4.42
2018-01-15T04:02:47.680Z,4.61
2018-01-15T04:03:49.089Z,4.59
2018-01-15T04:04:50.498Z,4.58
2018-01-15T04:05:51.915Z,4.69
2018-01-15T04:06:53.321Z,4.58
2018-01-15T04:07:54.740Z,4.57
2018-01-15T04:08:56.146Z,4.84
2018-01-15T04:09:57.559Z,4.72
2018-01-15T04:10:58.982Z,4.62
2018-01-15T04:12:00.400Z,4.72
2018-01-15T04:13:01.815Z,4.73
2018-01-15T04:14:03.220Z,4.79
2018-01-15T04:15:04.634Z,4.69
2018-01-15T04:16:06.058Z,4.73
2018-01-15T04:17:07.484Z,4.69
2018-01-15T04:18:08.887Z,4.64
2018-01-15T04:19:10.300Z,4.59
2018-01-15T04:20:11.707Z,4.61
2018-01-15T04:21:13.127Z,4.61
2018-01-15T04:22:14.526Z,4.72
2018-01-15T04:23:15.943Z,4.72
2018-01-15T04:24:17.359Z,4.67
2018-01-15T04:25:18.785Z,4.67
2018-01-15T04:26:20.187Z,4.70
2018-01-15T04:27:21.600Z,4.64
2018-01-15T04:28:23.014Z,4.55
2018-01-15T04:29:24.430Z,4.58
2018-01-15T04:30:25.830Z,4.65
2018-01-15T04:31:27.237Z,5.25
2018-01-15T04:32:28.665Z,5.17
2018-01-15T04:33:30.079Z,5.01
2018-01-15T04:34:31.489Z,4.95
2018-01-15T04:35:32.900Z,4.83
2018-01-15T04:36:34.315Z,4.69
2018-01-15T04:37:35.730Z,4.61
2018-01-15T04:38:37.146Z,4.61
2018-01-15T04:39:38.560Z,4.61
2018-01-15T04:40:39.968Z,4.64
2018-01-15T04:41:41.388Z,4.64
2018-01-15T04:42:42.798Z,4.73
2018-01-15T04:43:44.207Z,4.70
2018-01-15T04:44:45.621Z,4.73
2018-01-15T04:45:47.036Z,4.64
2018-01-15T04:46:48.541Z,4.79
2018-01-15T04:47:49.954Z,4.73
2018-01-15T04:48:51.379Z,4.88
2018-01-15T04:49:52.787Z,5.01
2018-01-15T04:50:54.206Z,5.19
2018-01-15T04:51:55.612Z,5.55
2018-01-15T04:52:58.012Z,5.49
2018-01-15T04:53:59.429Z,5.16
2018-01-15T04:55:00.840Z,5.01
2018-01-15T04:56:02.269Z,5.01
2018-01-15T04:57:03.695Z,5.09
2018-01-15T04:58:05.105Z,5.10
2018-01-15T04:59:06.528Z,5.12
2018-01-15T05:00:07.935Z,5.16
2018-01-15T05:01:09.341Z,5.19
2018-01-15T05:02:10.758Z,5.28
2018-01-15T05:03:12.172Z,5.20
2018-01-15T05:04:13.591Z,5.30
2018-01-15T05:05:15.004Z,5.14
2018-01-15T05:06:16.424Z,5.17
2018-01-15T05:07:17.839Z,5.20
2018-01-15T05:08:19.255Z,5.25
2018-01-15T05:09:20.670Z,5.22
2018-01-15T05:10:22.081Z,5.34
2018-01-15T05:11:23.489Z,5.38
2018-01-15T05:12:24.902Z,5.45
2018-01-15T05:13:26.322Z,5.52
2018-01-15T05:14:27.880Z,5.57
2018-01-15T05:15:29.281Z,5.35
2018-01-15T05:16:30.693Z,5.25
2018-01-15T05:17:32.102Z,5.16
2018-01-15T05:18:33.514Z,5.14
2018-01-15T05:19:34.932Z,5.14
2018-01-15T05:20:36.354Z,5.12
2018-01-15T05:21:37.766Z,5.13
2018-01-15T05:22:39.176Z,5.04
2018-01-15T05:23:40.592Z,5.17
2018-01-15T05:24:42.007Z,5.22
2018-01-15T05:25:43.421Z,5.13
2018-01-15T05:26:44.833Z,5.12
2018-01-15T05:27:46.248Z,5.25
2018-01-15T05:28:47.714Z,5.19
2018-01-15T05:29:49.072Z,5.19
2018-01-15T05:30:50.485Z,5.14
2018-01-15T05:31:51.898Z,5.16
2018-01-15T05:32:53.304Z,5.23
2018-01-15T05:33:54.718Z,5.23
2018-01-15T05:34:56.135Z,5.27
2018-01-15T05:35:57.546Z,5.20
2018-01-15T05:36:58.958Z,5.25
2018-01-15T05:38:00.370Z,5.20
2018-01-15T05:39:01.787Z,5.30
2018-01-15T05:40:03.212Z,5.31
2018-01-15T05:41:04.624Z,5.41
2018-01-15T05:42:06.033Z,5.37
2018-01-15T05:43:07.441Z,5.43
2018-01-15T05:44:08.850Z,5.34
2018-01-15T05:45:10.264Z,5.50
2018-01-15T05:46:11.667Z,5.43
2018-01-15T05:47:13.077Z,5.45
2018-01-15T05:48:14.486Z,5.41
2018-01-15T05:49:16.047Z,5.48
2018-01-15T05:50:17.455Z,5.46
2018-01-15T05:51:18.862Z,5.43
2018-01-15T05:52:20.277Z,5.52
2018-01-15T05:53:21.685Z,5.55
2018-01-15T05:54:23.099Z,5.49
2018-01-15T05:55:24.519Z,5.56
2018-01-15T05:56:25.956Z,5.59
2018-01-15T05:57:27.368Z,5.68
2018-01-15T05:58:28.779Z,5.67
2018-01-15T05:59:30.190Z,5.70
2018-01-15T06:00:31.611Z,5.56
2018-01-15T06:01:33.023Z,5.68
2018-01-15T06:02:34.425Z,5.74
2018-01-15T06:03:35.836Z,5.70
2018-01-15T06:04:37.243Z,5.60
2018-01-15T06:05:38.661Z,5.70
2018-01-15T06:06:40.079Z,5.68
2018-01-15T06:07:41.492Z,5.75
2018-01-15T06:08:42.903Z,5.73
2018-01-15T06:09:44.329Z,5.74
2018-01-15T06:10:45.748Z,5.74
2018-01-15T06:11:47.159Z,5.77
2018-01-15T06:12:49.049Z,5.71
2018-01-15T06:13:51.054Z,5.74
2018-01-15T06:14:52.469Z,5.73
2018-01-15T06:15:53.878Z,5.74
2018-01-15T06:16:55.298Z,5.78
2018-01-15T06:17:56.715Z,5.74
2018-01-15T06:18:58.216Z,5.67
2018-01-15T06:19:59.641Z,5.64
2018-01-15T06:21:01.073Z,5.66
2018-01-15T06:22:02.487Z,5.70
2018-01-15T06:23:03.896Z,5.67
2018-01-15T06:24:05.311Z,5.73
2018-01-15T06:25:06.719Z,5.55
2018-01-15T06:26:08.272Z,5.70
2018-01-15T06:27:09.692Z,5.56
2018-01-15T06:28:11.113Z,5.59
2018-01-15T06:29:12.609Z,5.43
2018-01-15T06:30:14.006Z,5.56
2018-01-15T06:31:15.531Z,5.55
2018-01-15T06:32:16.939Z,5.57
2018-01-15T06:33:18.347Z,5.55
2018-01-15T06:34:19.992Z,5.50
2018-01-15T06:35:21.795Z,5.35
2018-01-15T06:36:23.211Z,5.40
2018-01-15T06:37:24.618Z,5.35
2018-01-15T06:38:26.385Z,5.46
2018-01-15T06:39:28.018Z,5.38
2018-01-15T06:40:29.662Z,5.38
2018-01-15T06:41:31.084Z,5.38
2018-01-15T06:42:32.486Z,5.37
2018-01-15T06:43:33.921Z,5.35
2018-01-15T06:44:35.332Z,5.22
2018-01-15T06:45:37.544Z,5.38
2018-01-15T06:46:39.034Z,5.40
2018-01-15T06:47:40.447Z,5.46
2018-01-15T06:48:42.707Z,5.38
2018-01-15T06:49:44.145Z,5.35
2018-01-15T06:50:45.553Z,5.40
2018-01-15T06:51:46.971Z,5.37
2018-01-15T06:52:48.382Z,5.40
2018-01-15T06:53:49.796Z,5.35
2018-01-15T06:54:51.251Z,5.35
2018-01-15T06:55:52.670Z,5.41
2018-01-15T06:56:54.078Z,5.31
2018-01-15T06:57:55.493Z,5.41
2018-01-15T06:58:56.906Z,5.38
2018-01-15T06:59:58.547Z,5.32
2018-01-15T07:00:59.945Z,5.31
2018-01-15T07:02:01.378Z,5.22
2018-01-15T07:03:02.824Z,5.32
2018-01-15T07:04:04.238Z,5.34
2018-01-15T07:05:05.731Z,5.38
2018-01-15T07:06:07.280Z,5.19
2018-01-15T07:07:08.674Z,5.35
2018-01-15T07:08:10.073Z,5.23
2018-01-15T07:09:11.488Z,5.38
2018-01-15T07:10:12.978Z,5.35
2018-01-15T07:11:14.392Z,5.30
2018-01-15T07:12:15.808Z,5.37
2018-01-15T07:13:17.215Z,5.37
2018-01-15T07:14:18.633Z,5.40
2018-01-15T07:15:20.038Z,5.40
2018-01-15T07:16:21.447Z,5.45
2018-01-15T07:17:22.862Z,5.41
2018-01-15T07:18:24.280Z,5.35
2018-01-15T07:19:25.697Z,5.41
2018-01-15T07:20:27.102Z,5.46
2018-01-15T07:21:28.515Z,5.49
2018-01-15T07:22:29.931Z,5.48
2018-01-15T07:23:31.343Z,5.59
2018-01-15T07:24:32.791Z,5.45
2018-01-15T07:25:34.259Z,5.45
2018-01-15T07:26:35.680Z,5.43
2018-01-15T07:27:37.089Z,5.55
2018-01-15T07:28:38.506Z,5.55
2018-01-15T07:29:39.914Z,5.43
2018-01-15T07:30:41.331Z,5.48
2018-01-15T07:31:42.751Z,5.55
2018-01-15T07:32:44.158Z,5.55
2018-01-15T07:33:45.568Z,5.57
2018-01-15T07:34:46.978Z,5.50
2018-01-15T07:35:48.397Z,5.55
2018-01-15T07:36:49.812Z,5.55
2018-01-15T07:37:51.222Z,5.56
2018-01-15T07:38:52.640Z,5.59
2018-01-15T07:39:54.055Z,5.53
2018-01-15T07:40:55.580Z,5.45
2018-01-15T07:41:56.981Z,5.52
2018-01-15T07:42:58.395Z,5.45
2018-01-15T07:43:59.821Z,5.50
2018-01-15T07:45:01.273Z,5.59
2018-01-15T07:46:02.739Z,5.56
2018-01-15T07:47:04.443Z,5.57
2018-01-15T07:48:05.837Z,5.55
2018-01-15T07:49:07.255Z,5.43
2018-01-15T07:50:09.617Z,5.50
2018-01-15T07:51:11.025Z,5.55
2018-01-15T07:52:12.440Z,5.52
2018-01-15T07:53:13.870Z,5.56
2018-01-15T07:54:15.387Z,5.60
2018-01-15T07:55:16.800Z,5.55
2018-01-15T07:56:18.213Z,5.48
2018-01-15T07:57:19.588Z,5.56
2018-01-15T07:58:21.003Z,5.56
2018-01-15T07:59:22.413Z,5.67
2018-01-15T08:00:23.831Z,5.57
2018-01-15T08:01:25.248Z,5.48
2018-01-15T08:02:26.744Z,5.50
2018-01-15T08:03:28.166Z,5.55
2018-01-15T08:04:29.588Z,5.64
2018-01-15T08:05:30.997Z,5.57
2018-01-15T08:06:32.409Z,5.64
2018-01-15T08:07:33.821Z,5.59
2018-01-15T08:08:35.237Z,5.64
2018-01-15T08:09:36.645Z,5.74
2018-01-15T08:10:38.069Z,5.70
2018-01-15T08:11:39.490Z,5.70
2018-01-15T08:12:40.908Z,5.78
2018-01-15T08:13:42.316Z,5.66
2018-01-15T08:14:43.737Z,5.71
2018-01-15T08:15:45.153Z,5.70
2018-01-15T08:16:46.565Z,5.73
2018-01-15T08:17:47.987Z,5.85
2018-01-15T08:18:49.393Z,5.85
2018-01-15T08:19:50.811Z,5.78
2018-01-15T08:20:52.982Z,5.89
2018-01-15T08:21:54.528Z,5.83
2018-01-15T08:22:55.940Z,5.91
2018-01-15T08:23:57.368Z,5.83
2018-01-15T08:24:58.780Z,6.03
2018-01-15T08:26:00.271Z,5.83
2018-01-15T08:27:01.689Z,5.85
2018-01-15T08:28:03.133Z,5.88
2018-01-15T08:29:04.521Z,6.00
2018-01-15T08:30:05.932Z,5.88
2018-01-15T08:31:07.352Z,5.83
2018-01-15T08:32:08.779Z,6.00
2018-01-15T08:33:10.194Z,6.01
2018-01-15T08:34:11.604Z,6.10
2018-01-15T08:35:13.032Z,5.96
2018-01-15T08:36:14.458Z,6.07
2018-01-15T08:37:15.885Z,6.06
2018-01-15T08:38:17.308Z,6.06
2018-01-15T08:39:18.715Z,6.07
2018-01-15T08:40:20.130Z,6.01
2018-01-15T08:41:21.549Z,6.10
2018-01-15T08:42:23.030Z,6.13
2018-01-15T08:43:24.448Z,6.14
2018-01-15T08:44:25.869Z,6.18
2018-01-15T08:45:27.279Z,6.18
2018-01-15T08:46:28.746Z,6.09
2018-01-15T08:47:30.161Z,6.10
2018-01-15T08:48:31.579Z,6.13
2018-01-15T08:49:32.989Z,6.19
2018-01-15T08:50:34.402Z,6.21
2018-01-15T08:51:35.822Z,6.22
2018-01-15T08:52:37.282Z,6.25
2018-01-15T08:53:38.708Z,6.21
2018-01-15T08:54:40.143Z,6.32
2018-01-15T08:55:41.555Z,6.33
2018-01-15T08:56:42.971Z,6.35
2018-01-15T08:57:44.577Z,6.38
2018-01-15T08:58:45.998Z,6.33
2018-01-15T08:59:47.425Z,6.28
2018-01-15T09:00:48.862Z,6.28
2018-01-15T09:01:50.245Z,6.33
2018-01-15T09:02:51.661Z,6.35
2018-01-15T09:03:53.073Z,6.22
2018-01-15T09:04:54.495Z,6.35
2018-01-15T09:05:55.919Z,6.40
2018-01-15T09:06:57.343Z,6.32
2018-01-15T09:07:58.761Z,6.35
2018-01-15T09:09:00.178Z,6.38
2018-01-15T09:10:01.601Z,6.33
2018-01-15T09:11:03.028Z,6.44
2018-01-15T09:12:04.449Z,6.44
2018-01-15T09:13:05.863Z,6.40
2018-01-15T09:14:08.081Z,6.46
2018-01-15T09:15:09.503Z,6.43
2018-01-15T09:16:10.910Z,6.44
2018-01-15T09:17:12.350Z,6.35
2018-01-15T09:18:13.764Z,6.33
2018-01-15T09:19:15.182Z,6.38
2018-01-15T09:20:16.601Z,6.44
2018-01-15T09:21:18.019Z,6.43
2018-01-15T09:22:19.435Z,6.44
2018-01-15T09:23:20.856Z,6.47
2018-01-15T09:24:22.272Z,6.48
2018-01-15T09:25:23.690Z,6.48
2018-01-15T09:26:25.112Z,6.59
2018-01-15T09:27:26.530Z,6.53
2018-01-15T09:28:27.941Z,6.51
2018-01-15T09:29:29.356Z,6.56
2018-01-15T09:30:30.772Z,6.61
2018-01-15T09:31:32.191Z,6.54
2018-01-15T09:32:33.607Z,6.63
2018-01-15T09:33:35.033Z,6.69
2018-01-15T09:34:36.457Z,6.66
2018-01-15T09:35:37.879Z,6.69
2018-01-15T09:36:39.291Z,6.61
2018-01-15T09:37:40.705Z,6.66
2018-01-15T09:38:42.123Z,6.71
2018-01-15T09:39:43.505Z,6.69
2018-01-15T09:40:44.926Z,6.68
2018-01-15T09:41:46.346Z,6.72
2018-01-15T09:42:47.766Z,6.81
2018-01-15T09:43:49.185Z,6.80
2018-01-15T09:44:50.597Z,6.76
2018-01-15T09:45:52.014Z,6.77
2018-01-15T09:46:53.446Z,6.83
2018-01-15T09:47:54.861Z,6.73
2018-01-15T09:48:56.277Z,6.73
2018-01-15T09:49:57.709Z,6.84
2018-01-15T09:50:59.120Z,6.76
2018-01-15T09:52:00.538Z,6.80
2018-01-15T09:53:01.953Z,6.68
2018-01-15T09:54:03.376Z,6.73
2018-01-15T09:55:04.808Z,6.76
2018-01-15T09:56:06.227Z,6.76
2018-01-15T09:57:07.650Z,6.69
2018-01-15T09:58:09.072Z,6.83
2018-01-15T09:59:10.513Z,6.95
2018-01-15T10:00:11.923Z,6.95
2018-01-15T10:01:13.341Z,6.95
2018-01-15T10:02:14.760Z,6.90
2018-01-15T10:03:16.184Z,6.77
2018-01-15T10:04:17.595Z,6.97
2018-01-15T10:05:19.024Z,6.91
2018-01-15T10:06:20.433Z,6.91
2018-01-15T10:07:21.851Z,7.02
2018-01-15T10:08:23.271Z,7.04
2018-01-15T10:09:24.689Z,6.99
2018-01-15T10:10:26.109Z,7.07
2018-01-15T10:11:27.522Z,7.19
2018-01-15T10:12:28.943Z,7.19
2018-01-15T10:13:30.353Z,7.17
2018-01-15T10:14:31.782Z,7.19
2018-01-15T10:15:33.204Z,7.16
2018-01-15T10:16:34.621Z,7.08
2018-01-15T10:17:36.044Z,7.17
2018-01-15T10:18:37.460Z,7.16
2018-01-15T10:19:38.886Z,7.20
2018-01-15T10:20:40.297Z,7.09
2018-01-15T10:21:41.717Z,7.23
2018-01-15T10:22:43.135Z,7.16
2018-01-15T10:23:44.561Z,7.20
2018-01-15T10:24:45.982Z,7.20
2018-01-15T10:25:47.403Z,7.22
2018-01-15T10:26:48.822Z,7.24
2018-01-15T10:27:50.242Z,7.34
2018-01-15T10:28:51.654Z,7.24
2018-01-15T10:29:53.080Z,7.26
2018-01-15T10:30:54.499Z,7.27
2018-01-15T10:31:55.918Z,7.26
2018-01-15T10:32:57.876Z,7.29
2018-01-15T10:33:59.296Z,7.29
2018-01-15T10:35:00.711Z,7.32
2018-01-15T10:36:02.133Z,7.22
2018-01-15T10:37:03.549Z,7.34
2018-01-15T10:38:04.968Z,7.27
2018-01-15T10:39:06.382Z,7.34
2018-01-15T10:40:07.801Z,7.32
2018-01-15T10:41:09.219Z,7.32
2018-01-15T10:42:10.642Z,7.31
2018-01-15T10:43:12.063Z,7.41
2018-01-15T10:44:13.488Z,7.50
2018-01-15T10:45:14.913Z,7.42
2018-01-15T10:46:16.339Z,7.49
2018-01-15T10:47:17.750Z,7.50
2018-01-15T10:48:19.171Z,7.41
2018-01-15T10:49:20.592Z,7.38
2018-01-15T10:50:22.009Z,7.47
2018-01-15T10:51:23.428Z,7.47
2018-01-15T10:52:24.850Z,7.47
2018-01-15T10:53:26.261Z,7.55
2018-01-15T10:54:27.677Z,7.56
2018-01-15T10:55:29.111Z,7.56
2018-01-15T10:56:30.525Z,7.56
2018-01-15T10:57:31.941Z,7.60
2018-01-15T10:58:33.350Z,7.60
2018-01-15T10:59:34.769Z,7.44
2018-01-15T11:00:36.196Z,7.66
2018-01-15T11:01:37.613Z,7.62
2018-01-15T11:02:39.033Z,7.45
2018-01-15T11:03:40.450Z,7.41
2018-01-15T11:04:41.871Z,7.58
2018-01-15T11:05:43.295Z,7.66
2018-01-15T11:06:44.721Z,7.58
2018-01-15T11:07:46.147Z,7.56
2018-01-15T11:08:47.565Z,7.59
2018-01-15T11:09:48.977Z,7.72
2018-01-15T11:10:50.403Z,7.69
2018-01-15T11:11:51.852Z,7.74
2018-01-15T11:12:53.243Z,7.71
2018-01-15T11:13:54.678Z,7.81
2018-01-15T11:14:56.106Z,7.81
2018-01-15T11:15:57.672Z,7.75
2018-01-15T11:16:59.088Z,7.79
2018-01-15T11:18:00.505Z,7.77
2018-01-15T11:19:01.921Z,7.92
2018-01-15T11:20:03.347Z,7.96
2018-01-15T11:21:04.767Z,8.02
2018-01-15T11:22:06.191Z,8.03
2018-01-15T11:23:07.622Z,8.15
2018-01-15T11:24:09.048Z,8.10
2018-01-15T11:25:10.463Z,8.21
2018-01-15T11:26:11.881Z,8.21
2018-01-15T11:27:13.308Z,8.18
2018-01-15T11:28:14.735Z,8.11
2018-01-15T11:29:16.159Z,8.00
2018-01-15T11:30:17.582Z,8.18
2018-01-15T11:31:19.033Z,8.11
2018-01-15T11:32:20.453Z,8.04
2018-01-15T11:33:21.883Z,8.12
2018-01-15T11:34:23.294Z,7.99
2018-01-15T11:35:24.709Z,8.00
2018-01-15T11:36:26.128Z,7.96
2018-01-15T11:37:27.553Z,8.20
2018-01-15T11:38:28.974Z,8.18
2018-01-15T11:39:30.388Z,8.18
2018-01-15T11:40:31.833Z,8.12
2018-01-15T11:41:33.247Z,8.03
2018-01-15T11:42:34.676Z,8.17
2018-01-15T11:43:36.093Z,8.11
2018-01-15T11:44:37.512Z,8.02
2018-01-15T11:45:38.928Z,8.10
2018-01-15T11:46:40.352Z,8.18
2018-01-15T11:47:41.776Z,8.21
2018-01-15T11:48:43.187Z,8.17
2018-01-15T11:49:44.614Z,8.18
2018-01-15T11:50:46.047Z,8.26
2018-01-15T11:51:47.465Z,8.17
2018-01-15T11:52:48.889Z,8.17
2018-01-15T11:53:50.304Z,8.20
2018-01-15T11:54:51.732Z,8.14
2018-01-15T11:55:53.145Z,8.15
2018-01-15T11:56:54.572Z,8.04
2018-01-15T11:57:55.993Z,7.99
2018-01-15T11:58:57.407Z,8.08
2018-01-15T11:59:58.826Z,8.03
2018-01-15T12:01:00.250Z,7.96
2018-01-15T12:02:01.675Z,8.00
2018-01-15T12:03:03.096Z,8.00
2018-01-15T12:04:04.514Z,7.96
2018-01-15T12:05:05.931Z,8.00
2018-01-15T12:06:07.351Z,7.97
2018-01-15T12:07:08.791Z,7.99
2018-01-15T12:08:10.214Z,7.85
2018-01-15T12:09:11.631Z,7.89
2018-01-15T12:10:13.066Z,7.89
2018-01-15T12:11:14.477Z,7.90
2018-01-15T12:12:15.910Z,7.82
2018-01-15T12:13:17.329Z,7.89
2018-01-15T12:14:18.750Z,7.82
2018-01-15T12:15:20.168Z,7.81
2018-01-15T12:16:21.592Z,7.87
2018-01-15T12:17:23.026Z,7.74
2018-01-15T12:18:24.431Z,7.81
2018-01-15T12:19:25.855Z,7.72
2018-01-15T12:20:27.281Z,7.72
2018-01-15T12:21:28.695Z,7.77
2018-01-15T12:22:30.120Z,7.89
2018-01-15T12:23:31.543Z,8.10
2018-01-15T12:24:33.040Z,8.26
2018-01-15T12:25:34.473Z,7.99
2018-01-15T12:26:35.883Z,7.97
2018-01-15T12:27:37.300Z,7.75
2018-01-15T12:28:38.727Z,7.71
2018-01-15T12:29:40.145Z,7.71
2018-01-15T12:30:41.561Z,7.72
2018-01-15T12:31:42.979Z,7.69
2018-01-15T12:32:44.403Z,7.59
2018-01-15T12:33:45.818Z,7.75
2018-01-15T12:34:47.262Z,7.62
2018-01-15T12:35:48.679Z,7.58
2018-01-15T12:36:50.097Z,7.67
2018-01-15T12:37:51.512Z,7.59
2018-01-15T12:38:53.078Z,7.56
2018-01-15T12:39:54.497Z,7.55
2018-01-15T12:40:55.927Z,7.60
2018-01-15T12:41:57.333Z,7.66
2018-01-15T12:42:58.750Z,7.59
2018-01-15T12:44:00.167Z,7.63
2018-01-15T12:45:01.588Z,7.56
2018-01-15T12:46:03.012Z,7.42
2018-01-15T12:47:04.418Z,7.58
2018-01-15T12:48:05.843Z,7.55
2018-01-15T12:49:07.273Z,7.45
2018-01-15T12:50:08.676Z,7.47
2018-01-15T12:51:10.087Z,7.60
2018-01-15T12:52:11.558Z,7.62
2018-01-15T12:53:12.986Z,7.63
2018-01-15T12:54:14.398Z,7.56
2018-01-15T12:55:15.820Z,7.55
2018-01-15T12:56:17.239Z,7.59
2018-01-15T12:57:18.649Z,7.72
2018-01-15T12:58:20.072Z,7.74
2018-01-15T12:59:21.493Z,7.60
2018-01-15T13:00:22.910Z,7.66
2018-01-15T13:01:24.332Z,7.63
2018-01-15T13:02:25.763Z,7.72
2018-01-15T13:03:27.176Z,7.72
2018-01-15T13:04:28.604Z,7.74
2018-01-15T13:05:30.026Z,7.66
2018-01-15T13:06:31.450Z,7.72
2018-01-15T13:07:32.872Z,7.58
2018-01-15T13:08:34.288Z,7.66
2018-01-15T13:09:35.699Z,7.78
2018-01-15T13:10:37.139Z,7.69
2018-01-15T13:11:38.613Z,7.62
2018-01-15T13:12:40.037Z,7.58
2018-01-15T13:13:41.453Z,7.56
2018-01-15T13:14:42.882Z,7.59
2018-01-15T13:15:44.298Z,7.56
2018-01-15T13:16:45.706Z,7.58
2018-01-15T13:17:47.138Z,7.63
2018-01-15T13:18:48.550Z,7.62
2018-01-15T13:19:49.979Z,7.62
2018-01-15T13:20:51.398Z,7.58
2018-01-15T13:21:52.855Z,7.59
2018-01-15T13:22:54.279Z,7.58
2018-01-15T13:23:55.694Z,7.53
2018-01-15T13:24:57.682Z,7.62
2018-01-15T13:25:59.092Z,7.56
2018-01-15T13:27:00.462Z,7.49
2018-01-15T13:28:01.885Z,7.63
2018-01-15T13:28:42.209Z,9.67
2018-01-15T13:29:43.672Z,8.15
2018-01-15T13:30:45.104Z,7.69
2018-01-15T13:31:46.508Z,7.78
2018-01-15T13:32:47.924Z,7.87
2018-01-15T13:33:49.345Z,7.90
2018-01-15T13:34:50.773Z,7.85
2018-01-15T13:35:52.197Z,8.00
2018-01-15T13:36:53.638Z,7.96